createdAt,value
2023-03-29T00:00:16.802Z,101080.78
2023-03-29T00:03:24.873Z,101090.28
2023-03-29T00:06:50.606Z,101083.88
2023-03-29T00:09:58.534Z,101085.94
2023-03-29T00:13:19.957Z,101083.91
2023-03-29T00:16:27.334Z,101089.69
2023-03-29T00:19:39.991Z,101093.59
2023-03-29T00:22:44.548Z,101087.47
2023-03-29T00:25:53.337Z,101076.53
2023-03-29T00:29:19.146Z,101076.75
2023-03-29T00:32:23.042Z,101070.78
2023-03-29T00:35:34.349Z,101069.44
2023-03-29T00:39:18.378Z,101056.53
2023-03-29T00:42:46.901Z,101058.50
2023-03-29T00:46:11.165Z,101058.62
2023-03-29T00:49:18.374Z,101047.97
2023-03-29T00:52:48.688Z,101046.69
2023-03-29T00:56:10.153Z,101045.06
2023-03-29T00:59:18.998Z,101028.47
2023-03-29T01:02:27.087Z,101032.72
2023-03-29T01:05:58.272Z,101017.91
2023-03-29T01:09:12.698Z,101015.94
2023-03-29T01:12:40.891Z,101023.63
2023-03-29T01:15:58.815Z,101020.09
2023-03-29T04:09:18.152Z,101069.94
2023-03-29T04:12:32.140Z,101074.31
2023-03-29T04:15:39.246Z,101070.75
2023-03-29T04:18:42.592Z,101070.84
2023-03-29T04:21:51.311Z,101078.38
2023-03-29T04:24:56.986Z,101073.44
2023-03-29T04:28:04.116Z,101079.12
2023-03-29T04:31:27.955Z,101085.53
2023-03-29T04:34:33.841Z,101099.69
2023-03-29T04:37:41.888Z,101098.97
2023-03-29T04:40:47.418Z,101098.09
2023-03-29T04:44:14.432Z,101098.78
2023-03-29T04:47:39.962Z,101097.78
2023-03-29T04:50:47.528Z,101101.00
2023-03-29T04:53:50.536Z,101104.19
2023-03-29T04:56:53.851Z,101094.97
2023-03-29T04:59:59.370Z,101101.22
2023-03-29T05:03:14.648Z,101095.28
2023-03-29T05:06:18.412Z,101099.03
2023-03-29T05:09:28.161Z,101099.91
2023-03-29T05:12:31.127Z,101086.59
2023-03-29T05:15:41.235Z,101074.84
2023-03-29T05:18:46.560Z,101074.66
2023-03-29T05:21:51.377Z,101070.03
2023-03-29T05:24:55.540Z,101075.03
2023-03-29T05:28:03.608Z,101069.78
2023-03-29T05:31:08.043Z,101074.03
2023-03-29T05:34:13.298Z,101079.16
2023-03-29T05:37:16.217Z,101079.66
2023-03-29T05:40:22.581Z,101081.34
2023-03-29T05:43:27.663Z,101082.22
2023-03-29T05:46:36.277Z,101077.13
2023-03-29T05:49:39.320Z,101082.81
2023-03-29T05:52:47.937Z,101080.75
2023-03-29T05:56:11.721Z,101083.31
2023-03-29T05:59:17.664Z,101087.75
2023-03-29T06:02:21.512Z,101084.09
2023-03-29T06:05:27.732Z,101089.75
2023-03-29T06:08:32.693Z,101084.59
2023-03-29T06:11:37.009Z,101098.84
2023-03-29T06:14:45.686Z,101097.66
2023-03-29T06:17:50.776Z,101104.06
2023-03-29T06:20:57.884Z,101105.84
2023-03-29T06:24:05.379Z,101092.69
2023-03-29T06:27:09.396Z,101099.28
2023-03-29T06:30:14.676Z,101097.47
2023-03-29T06:33:21.042Z,101095.44
2023-03-29T06:36:25.975Z,101099.75
2023-03-29T06:39:37.523Z,101103.59
2023-03-29T06:42:46.512Z,101101.91
2023-03-29T06:45:57.099Z,101102.91
2023-03-29T06:49:09.314Z,101113.19
2023-03-29T06:52:17.783Z,101120.34
2023-03-29T06:55:29.508Z,101121.19
2023-03-29T06:58:41.034Z,101125.09
2023-03-29T07:01:47.341Z,101129.13
2023-03-29T07:04:54.543Z,101134.72
2023-03-29T17:37:10.404Z,100752.44
2023-03-29T17:40:15.364Z,100745.28
2023-03-29T17:43:57.979Z,100743.91
2023-03-29T17:47:49.124Z,100755.94
2023-03-29T17:51:13.830Z,100747.94
2023-03-29T17:54:18.275Z,100760.78
2023-03-29T17:57:43.917Z,100762.06
2023-03-29T18:01:07.385Z,100759.84
2023-03-29T18:04:11.489Z,100759.34
2023-03-29T18:07:15.515Z,100757.84
2023-03-29T18:10:20.435Z,100755.31
2023-03-29T18:14:04.915Z,100765.87
2023-03-29T18:17:13.894Z,100769.16
2023-03-29T18:20:17.442Z,100766.03
2023-03-29T18:23:49.430Z,100774.97
2023-03-29T18:27:32.046Z,100773.06
2023-03-29T18:30:55.688Z,100780.66
2023-03-29T18:34:22.535Z,100769.47
2023-03-29T18:37:36.948Z,100764.22
2023-03-29T18:40:40.874Z,100774.16
2023-03-29T18:43:45.160Z,100772.22
2023-03-29T18:46:48.173Z,100771.69
2023-03-29T18:50:13.272Z,100773.81
2023-03-29T18:53:37.050Z,100775.53
2023-03-29T18:57:20.432Z,100770.66
2023-03-29T19:00:44.188Z,100774.28
2023-03-29T19:03:52.698Z,100770.34
2023-03-29T19:07:36.092Z,100776.94
2023-03-29T19:10:40.042Z,100776.16
2023-03-29T19:14:25.326Z,100782.16
2023-03-29T19:17:48.861Z,100782.87
2023-03-29T19:20:53.885Z,100779.84
2023-03-29T19:24:00.716Z,100779.50
2023-03-29T19:27:23.541Z,100780.84
2023-03-29T19:31:08.595Z,100776.25
2023-03-29T19:34:51.345Z,100777.72
2023-03-29T19:37:54.550Z,100771.06
2023-03-29T19:40:57.292Z,100771.34
2023-03-29T19:45:00.904Z,100768.16
2023-03-29T19:48:04.692Z,100773.44
2023-03-29T19:52:07.532Z,100767.22
